Terminal Aerodrome Forecast
Issued by NWS

Home | Current Version | Previous Version | Text Only | Print | Product List | Glossary On
Versions: 1 2 3 4 5 6 7 8 9 10 11 12
323
FTPA31 PHFO 240536
TAFHOG
TAF
PHOG 240536Z 2406/2506 05009KT P6SM FEW040 SCT060
     FM241900 05015G23KT P6SM FEW040 SCT060
     FM250500 07009KT P6SM FEW040 SCT060=

USA.gov is the U.S. government's official web portal to all federal, state and local government web resources and services.